createdAt,value
2022-10-05T00:01:53.525Z,28.60
2022-10-05T00:04:29.329Z,32.10
2022-10-05T00:07:10.768Z,31.20
2022-10-05T00:09:43.549Z,24.80
2022-10-05T00:12:21.128Z,28.90
2022-10-05T00:14:56.878Z,31.30
2022-10-05T00:17:30.771Z,26.70
2022-10-05T00:20:03.256Z,30.80
2022-10-05T00:22:38.168Z,26.10
2022-10-05T00:25:16.913Z,29.30
2022-10-05T00:27:52.784Z,28.60
2022-10-05T00:30:28.459Z,31.50
2022-10-05T00:35:32.118Z,27.90
2022-10-05T00:38:04.456Z,31.40
2022-10-05T00:40:57.071Z,30.30
2022-10-05T00:43:48.039Z,30.60
2022-10-05T00:46:25.576Z,28.40
2022-10-05T00:49:08.107Z,28.00
2022-10-05T00:51:43.156Z,28.90
2022-10-05T00:54:27.506Z,30.70
2022-10-05T00:57:09.926Z,28.40
2022-10-05T00:59:59.328Z,32.20
2022-10-05T01:02:41.828Z,35.50
2022-10-05T01:05:21.556Z,30.60
2022-10-05T01:08:00.544Z,33.40
2022-10-05T01:10:41.396Z,33.70
2022-10-05T01:13:25.789Z,28.10
2022-10-05T01:16:09.869Z,30.20
2022-10-05T01:18:49.748Z,30.70
2022-10-05T01:21:25.218Z,33.80
2022-10-05T01:24:34.661Z,29.60
2022-10-05T01:27:36.118Z,30.50
2022-10-05T01:30:13.715Z,30.30
2022-10-05T01:32:51.417Z,33.80
2022-10-05T01:35:49.753Z,31.00
2022-10-05T01:38:36.258Z,30.00
2022-10-05T01:41:22.576Z,31.30
2022-10-05T01:44:01.366Z,30.90
2022-10-05T01:46:40.039Z,29.80
2022-10-05T01:49:33.577Z,32.90
2022-10-05T01:52:20.690Z,31.50
2022-10-05T01:55:08.429Z,27.70
2022-10-05T01:57:52.098Z,26.70
2022-10-05T02:00:24.423Z,31.20
2022-10-05T02:03:05.737Z,28.80
2022-10-05T02:05:46.397Z,28.10
2022-10-05T02:08:23.918Z,24.10
2022-10-05T02:11:01.300Z,27.40
2022-10-05T02:13:40.625Z,28.00
2022-10-05T02:16:23.498Z,23.80
2022-10-05T02:18:59.927Z,25.80
2022-10-05T02:21:36.177Z,27.10
2022-10-05T02:24:14.818Z,23.20
2022-10-05T02:26:49.177Z,23.40
2022-10-05T02:29:27.861Z,24.80
2022-10-05T02:32:04.748Z,26.90
2022-10-05T02:34:40.865Z,25.80
2022-10-05T02:37:32.426Z,24.10
2022-10-05T02:40:16.122Z,25.90
2022-10-05T02:42:56.478Z,24.40
2022-10-05T02:45:42.335Z,22.00
2022-10-05T02:48:26.018Z,23.30
2022-10-05T02:51:06.388Z,25.30
2022-10-05T02:53:49.215Z,25.60
2022-10-05T02:56:31.355Z,24.70
2022-10-05T02:59:12.478Z,22.60
2022-10-05T03:01:52.540Z,23.00
2022-10-05T03:04:36.956Z,28.90
2022-10-05T03:07:18.159Z,22.00
2022-10-05T03:10:01.092Z,26.10
2022-10-05T03:12:47.749Z,26.10
2022-10-05T03:15:36.714Z,23.90
2022-10-05T03:18:21.402Z,22.20
2022-10-05T03:21:04.897Z,21.30
2022-10-05T03:23:51.338Z,23.70
2022-10-05T03:26:42.369Z,19.90
2022-10-05T03:29:28.365Z,24.20
2022-10-05T03:32:09.636Z,21.60
2022-10-05T03:34:48.047Z,21.70
2022-10-05T03:37:29.686Z,20.80
2022-10-05T03:40:10.356Z,20.20
2022-10-05T03:43:01.999Z,20.30
2022-10-05T03:45:43.768Z,23.00
2022-10-05T03:48:21.348Z,19.70
2022-10-05T03:51:03.998Z,19.90
2022-10-05T03:53:43.988Z,23.10
2022-10-05T03:56:24.091Z,19.00
2022-10-05T03:59:02.337Z,24.20
2022-10-05T04:01:41.186Z,17.90
2022-10-05T04:04:25.762Z,19.90
2022-10-05T04:07:02.486Z,15.60
2022-10-05T04:09:38.376Z,20.50
2022-10-05T04:12:18.846Z,18.90
2022-10-05T04:14:55.641Z,15.90
2022-10-05T04:17:38.088Z,19.80
2022-10-05T04:20:21.216Z,22.30
2022-10-05T04:23:00.365Z,15.70
2022-10-05T04:25:37.708Z,18.90
2022-10-05T04:28:17.793Z,15.30
2022-10-05T04:30:54.039Z,19.30
2022-10-05T04:33:28.868Z,16.20
2022-10-05T04:36:23.344Z,17.70
2022-10-05T04:39:12.639Z,17.90
2022-10-05T04:41:57.936Z,14.70
2022-10-05T04:44:58.425Z,15.90
2022-10-05T04:47:50.026Z,17.40
2022-10-05T04:50:32.900Z,16.60
2022-10-05T04:53:24.837Z,14.70
2022-10-05T04:56:24.416Z,16.70
2022-10-05T04:59:30.237Z,16.20
2022-10-05T05:02:13.638Z,16.10
2022-10-05T05:07:40.498Z,12.30
2022-10-05T05:10:43.006Z,14.00
2022-10-05T05:13:34.916Z,14.20
2022-10-05T05:16:13.834Z,17.50
2022-10-05T05:19:17.188Z,14.10
2022-10-05T05:21:59.858Z,16.40
2022-10-05T05:24:42.498Z,14.60
2022-10-05T05:27:42.291Z,14.50
2022-10-05T05:30:23.651Z,14.80
2022-10-05T05:33:14.081Z,18.70
2022-10-05T05:36:25.924Z,14.80
2022-10-05T05:39:17.375Z,13.40
2022-10-05T05:41:59.578Z,13.40
2022-10-05T05:44:38.828Z,12.80
2022-10-05T05:47:22.011Z,12.20
2022-10-05T05:50:19.296Z,15.00
2022-10-05T05:52:55.866Z,12.40
2022-10-05T05:55:32.978Z,16.40
2022-10-05T05:58:16.838Z,13.10
2022-10-05T06:00:57.718Z,17.60
2022-10-05T06:03:37.517Z,12.90
2022-10-05T06:06:15.683Z,15.00
2022-10-05T06:08:56.446Z,15.50
2022-10-05T06:12:06.150Z,13.20
2022-10-05T06:14:43.789Z,15.60
2022-10-05T06:17:20.994Z,14.10
2022-10-05T06:20:04.700Z,12.00
2022-10-05T06:22:43.183Z,12.40
2022-10-05T06:25:30.498Z,16.20
2022-10-05T06:28:09.499Z,14.40
2022-10-05T06:30:53.479Z,13.70
2022-10-05T06:33:43.867Z,13.50
2022-10-05T06:36:41.095Z,10.70
2022-10-05T06:39:38.350Z,10.00
2022-10-05T06:42:34.991Z,9.60
2022-10-05T06:45:31.082Z,8.70
2022-10-05T06:48:19.098Z,7.20
2022-10-05T06:51:23.677Z,9.50
2022-10-05T06:54:30.208Z,7.40
2022-10-05T06:57:09.727Z,7.90
2022-10-05T06:59:50.938Z,9.20
2022-10-05T07:02:28.881Z,9.80
2022-10-05T07:05:33.080Z,8.70
2022-10-05T07:08:12.099Z,9.00
2022-10-05T07:10:58.287Z,7.00
2022-10-05T07:13:53.237Z,9.50
2022-10-05T07:16:37.020Z,8.20
2022-10-05T07:19:29.987Z,7.90
2022-10-05T07:22:28.282Z,9.90
2022-10-05T07:25:08.716Z,7.30
2022-10-05T07:27:51.096Z,8.20
2022-10-05T07:30:25.291Z,7.70
2022-10-05T07:33:10.409Z,6.20
2022-10-05T07:36:09.696Z,8.10
2022-10-05T07:38:48.267Z,8.60
2022-10-05T07:41:26.155Z,5.10
2022-10-05T07:44:12.837Z,6.20
2022-10-05T07:46:55.967Z,8.10
2022-10-05T07:49:42.102Z,8.50
2022-10-05T07:52:32.414Z,7.20
2022-10-05T07:55:17.433Z,9.40
2022-10-05T07:58:04.485Z,7.70
2022-10-05T08:00:58.667Z,7.90
2022-10-05T08:03:46.278Z,8.40
2022-10-05T08:06:36.119Z,8.60
2022-10-05T08:09:29.179Z,8.10
2022-10-05T08:12:13.837Z,7.40
2022-10-05T08:14:53.287Z,8.10
2022-10-05T08:17:35.597Z,6.70
2022-10-05T08:20:21.416Z,9.10
2022-10-05T08:22:59.099Z,6.10
2022-10-05T08:25:42.619Z,9.80
2022-10-05T08:28:22.511Z,7.50
2022-10-05T08:31:02.608Z,6.80
2022-10-05T08:33:45.236Z,8.00
2022-10-05T08:36:23.429Z,9.80
2022-10-05T08:39:01.757Z,5.70
2022-10-05T08:42:07.259Z,6.70
2022-10-05T08:45:12.336Z,6.50
2022-10-05T08:48:07.359Z,7.80
2022-10-05T08:51:19.418Z,5.90
2022-10-05T08:54:39.307Z,6.10
2022-10-05T08:57:40.879Z,6.30
2022-10-05T09:00:18.759Z,7.40
2022-10-05T09:03:14.078Z,7.30
2022-10-05T09:06:12.176Z,9.00
2022-10-05T09:09:08.719Z,7.90
2022-10-05T09:11:45.785Z,5.70
2022-10-05T09:14:56.629Z,6.20
2022-10-05T09:18:07.504Z,5.00
2022-10-05T09:20:51.061Z,6.70
2022-10-05T09:23:38.760Z,7.90
2022-10-05T09:26:45.058Z,7.00
2022-10-05T09:29:48.665Z,5.80
2022-10-05T09:32:46.558Z,4.60
2022-10-05T09:35:32.502Z,7.90
2022-10-05T09:38:15.377Z,6.40
2022-10-05T09:44:47.298Z,8.50
2022-10-05T09:47:38.528Z,5.90
2022-10-05T09:50:49.762Z,6.20
2022-10-05T09:53:50.066Z,4.90
2022-10-05T09:57:09.339Z,9.40
2022-10-05T10:00:12.719Z,6.50
2022-10-05T10:03:11.255Z,7.40
2022-10-05T10:06:03.036Z,7.00
2022-10-05T10:08:45.047Z,6.10
2022-10-05T10:11:27.898Z,10.30
2022-10-05T10:14:14.436Z,7.00
2022-10-05T10:17:02.228Z,6.30
2022-10-05T10:20:15.026Z,4.60
2022-10-05T10:23:10.187Z,5.40
2022-10-05T10:26:01.036Z,6.90
2022-10-05T10:28:53.876Z,8.30
2022-10-05T10:31:46.759Z,9.30
2022-10-05T10:34:52.907Z,4.90
2022-10-05T10:37:40.913Z,7.30
2022-10-05T10:40:36.771Z,8.30
2022-10-05T10:43:34.228Z,7.10
2022-10-05T10:46:22.274Z,7.50
2022-10-05T10:49:03.902Z,5.50
2022-10-05T10:52:07.082Z,7.10
2022-10-05T10:55:11.708Z,7.10
2022-10-05T10:58:01.276Z,6.40
2022-10-05T11:00:46.251Z,6.10
2022-10-05T11:03:49.499Z,5.80
2022-10-05T11:06:37.355Z,5.20
2022-10-05T11:09:30.647Z,6.90
2022-10-05T11:12:34.724Z,4.00
2022-10-05T11:15:24.685Z,3.50
2022-10-05T11:18:12.706Z,5.90
2022-10-05T11:21:11.723Z,10.80
2022-10-05T11:24:20.006Z,5.30
2022-10-05T11:27:11.735Z,4.90
2022-10-05T11:30:07.523Z,5.70
2022-10-05T11:33:17.888Z,7.40
2022-10-05T11:36:24.636Z,6.50
2022-10-05T11:39:39.077Z,7.40
2022-10-05T11:42:35.968Z,5.60
2022-10-05T11:45:23.927Z,6.00
2022-10-05T11:48:26.840Z,5.20
2022-10-05T11:51:29.040Z,6.70
2022-10-05T11:54:24.149Z,6.70
2022-10-05T11:57:02.116Z,9.60
2022-10-05T11:59:41.136Z,6.00
2022-10-05T12:02:43.077Z,8.80
2022-10-05T12:05:23.828Z,6.60
2022-10-05T12:08:13.553Z,7.10
2022-10-05T12:10:59.203Z,8.70
2022-10-05T12:13:40.948Z,5.90
2022-10-05T12:16:19.063Z,8.50
2022-10-05T12:18:56.939Z,8.80
2022-10-05T12:21:38.696Z,7.40
2022-10-05T12:24:23.385Z,9.40
2022-10-05T12:27:08.298Z,10.20
2022-10-05T12:29:45.808Z,6.60
2022-10-05T12:32:22.715Z,9.00
2022-10-05T12:35:02.283Z,6.30
2022-10-05T12:37:49.198Z,7.80
2022-10-05T12:40:28.346Z,8.20
2022-10-05T12:43:13.208Z,7.50
2022-10-05T12:46:00.587Z,7.20
2022-10-05T12:48:52.990Z,8.40
2022-10-05T12:51:38.154Z,9.20
2022-10-05T12:54:23.267Z,9.00
2022-10-05T12:57:01.425Z,7.50
2022-10-05T12:59:41.557Z,6.20
2022-10-05T13:02:26.180Z,6.80
2022-10-05T13:05:05.366Z,8.50
2022-10-05T13:07:50.506Z,8.00
2022-10-05T13:10:38.149Z,6.30
2022-10-05T13:13:35.777Z,8.60
2022-10-05T13:16:17.999Z,7.70
2022-10-05T13:19:07.667Z,7.90
2022-10-05T13:21:58.876Z,6.40
2022-10-05T13:24:36.468Z,8.40
2022-10-05T13:27:19.577Z,8.20
2022-10-05T13:29:59.347Z,6.30
2022-10-05T13:32:37.437Z,7.10
2022-10-05T13:35:29.770Z,6.50
2022-10-05T13:38:18.606Z,9.50
2022-10-05T13:40:59.898Z,5.70
2022-10-05T13:43:44.292Z,5.30
2022-10-05T13:46:24.205Z,6.70
2022-10-05T13:49:06.560Z,7.00
2022-10-05T13:51:47.517Z,6.80
2022-10-05T13:54:25.336Z,10.50
2022-10-05T13:57:04.832Z,6.00
2022-10-05T13:59:45.989Z,8.60
2022-10-05T14:02:22.582Z,8.40
2022-10-05T14:05:02.470Z,8.70
2022-10-05T14:07:41.069Z,5.20
2022-10-05T14:10:31.728Z,7.20
2022-10-05T14:13:10.977Z,6.00
2022-10-05T14:15:43.387Z,6.40
2022-10-05T14:18:27.663Z,5.20
2022-10-05T14:21:07.456Z,5.20
2022-10-05T14:23:40.070Z,6.80
2022-10-05T14:26:33.019Z,10.50
2022-10-05T14:29:18.346Z,6.20
2022-10-05T14:31:59.615Z,8.30
2022-10-05T14:34:37.556Z,7.00
2022-10-05T14:37:23.308Z,6.00
2022-10-05T14:39:59.206Z,7.80
2022-10-05T14:42:46.981Z,8.40
2022-10-05T14:45:23.150Z,6.60
2022-10-05T14:48:03.978Z,6.00
2022-10-05T14:50:50.520Z,6.10
2022-10-05T14:53:25.318Z,6.70
2022-10-05T14:56:18.996Z,9.50
2022-10-05T14:59:07.907Z,7.60
2022-10-05T15:01:47.148Z,7.80
2022-10-05T15:04:34.268Z,8.00
2022-10-05T15:07:21.978Z,8.60
2022-10-05T15:10:04.717Z,7.10
2022-10-05T15:12:46.997Z,8.80
2022-10-05T15:15:35.521Z,9.40
2022-10-05T15:18:16.974Z,7.00
2022-10-05T15:20:58.495Z,9.60
2022-10-05T15:23:38.276Z,7.90
2022-10-05T15:26:25.797Z,6.20
2022-10-05T15:29:08.786Z,8.80
2022-10-05T15:31:49.587Z,9.10
2022-10-05T15:34:29.868Z,6.80
2022-10-05T15:37:10.181Z,8.30
2022-10-05T15:39:50.442Z,8.00
2022-10-05T15:42:24.562Z,6.20
2022-10-05T15:45:09.121Z,5.00
2022-10-05T15:47:54.016Z,7.10
2022-10-05T15:50:30.123Z,5.70
2022-10-05T15:53:18.916Z,7.00
2022-10-05T15:55:57.789Z,5.10
2022-10-05T15:58:52.669Z,5.50
2022-10-05T16:01:41.748Z,6.20
2022-10-05T16:04:21.865Z,6.40
2022-10-05T16:07:17.180Z,5.20
2022-10-05T16:09:59.966Z,6.50
2022-10-05T16:12:52.387Z,5.50
2022-10-05T16:15:33.916Z,7.10
2022-10-05T16:18:46.329Z,6.40
2022-10-05T16:21:29.526Z,6.80
2022-10-05T16:24:15.990Z,7.10
2022-10-05T16:27:00.170Z,7.40
2022-10-05T16:29:40.531Z,6.20
2022-10-05T16:32:19.098Z,5.40
2022-10-05T16:35:04.145Z,6.90
2022-10-05T16:37:45.708Z,7.40
2022-10-05T16:40:29.416Z,7.60
2022-10-05T16:43:15.618Z,9.30
2022-10-05T16:46:02.408Z,8.30
2022-10-05T16:48:42.616Z,6.10
2022-10-05T16:51:28.516Z,7.30
2022-10-05T16:54:18.648Z,6.90
2022-10-05T16:56:56.408Z,6.40
2022-10-05T17:00:15.530Z,8.90
2022-10-05T17:03:03.386Z,7.80
2022-10-05T17:05:55.902Z,7.50
2022-10-05T17:08:45.869Z,10.10
2022-10-05T17:11:28.926Z,10.30
2022-10-05T17:14:32.526Z,10.80
2022-10-05T17:17:25.876Z,14.30
2022-10-05T17:20:24.038Z,11.70
2022-10-05T17:22:59.988Z,7.90
2022-10-05T17:25:47.860Z,8.20
2022-10-05T17:28:37.703Z,7.60
2022-10-05T17:31:27.360Z,36.80
2022-10-05T17:34:27.897Z,8.30
2022-10-05T17:37:16.912Z,8.50
2022-10-05T17:39:55.676Z,7.40
2022-10-05T17:42:49.418Z,6.10
2022-10-05T17:45:58.397Z,7.60
2022-10-05T17:49:07.596Z,12.00
2022-10-05T17:52:22.259Z,9.90
2022-10-05T17:55:32.107Z,11.80
2022-10-05T17:58:40.513Z,8.30
2022-10-05T18:01:32.001Z,7.40
2022-10-05T18:04:35.734Z,8.70
2022-10-05T18:07:21.398Z,6.80
2022-10-05T18:10:29.388Z,7.60
2022-10-05T18:13:36.150Z,8.50
2022-10-05T18:16:12.853Z,9.40
2022-10-05T18:19:05.979Z,10.60
2022-10-05T18:22:01.038Z,11.50
2022-10-05T18:24:56.982Z,12.10
2022-10-05T18:28:06.456Z,6.30
2022-10-05T18:30:59.357Z,8.10
2022-10-05T18:34:23.686Z,7.50
2022-10-05T18:37:12.008Z,9.70
2022-10-05T18:40:10.268Z,10.30
2022-10-05T18:42:56.984Z,10.20
2022-10-05T18:45:37.888Z,8.20
2022-10-05T18:48:25.975Z,8.70
2022-10-05T18:51:05.046Z,7.30
2022-10-05T18:53:43.338Z,8.10
2022-10-05T18:56:26.336Z,8.40
2022-10-05T18:59:11.470Z,7.90
2022-10-05T19:01:58.360Z,11.30
2022-10-05T19:04:40.516Z,8.00
2022-10-05T19:07:26.037Z,8.20
2022-10-05T19:10:17.946Z,8.90
2022-10-05T19:13:25.285Z,7.80
2022-10-05T19:16:12.328Z,9.30
2022-10-05T19:19:12.997Z,8.30
2022-10-05T19:21:51.499Z,7.50
2022-10-05T19:24:42.129Z,11.20
2022-10-05T19:27:27.178Z,8.80
2022-10-05T19:30:23.881Z,7.40
2022-10-05T19:33:13.287Z,10.10
2022-10-05T19:35:58.799Z,8.90
2022-10-05T19:38:38.614Z,9.40
2022-10-05T19:41:19.656Z,9.50
2022-10-05T19:44:15.396Z,8.20
2022-10-05T19:47:04.546Z,8.90
2022-10-05T19:49:50.338Z,8.10
2022-10-05T19:52:28.830Z,9.20
2022-10-05T19:55:16.600Z,10.30
2022-10-05T19:57:54.187Z,9.80
2022-10-05T20:00:31.781Z,9.20
2022-10-05T20:03:20.081Z,9.20
2022-10-05T20:05:55.278Z,11.60
2022-10-05T20:08:32.221Z,11.00
2022-10-05T20:11:14.378Z,9.20
2022-10-05T20:13:48.308Z,8.80
2022-10-05T20:16:47.690Z,8.40
2022-10-05T20:19:58.125Z,9.00
2022-10-05T20:22:34.584Z,12.00
2022-10-05T20:25:15.017Z,7.80
2022-10-05T20:27:50.063Z,10.30
2022-10-05T20:30:24.704Z,11.20
2022-10-05T20:33:01.689Z,10.90
2022-10-05T20:35:33.869Z,10.50
2022-10-05T20:38:06.339Z,9.40
2022-10-05T20:40:40.438Z,9.40
2022-10-05T20:43:12.627Z,10.40
2022-10-05T20:45:44.808Z,11.10
2022-10-05T20:48:17.747Z,11.10
2022-10-05T20:50:50.137Z,11.60
2022-10-05T20:53:22.336Z,10.70
2022-10-05T20:55:54.648Z,11.50
2022-10-05T20:58:27.303Z,11.70
2022-10-05T21:01:20.468Z,13.20
2022-10-05T21:03:53.100Z,11.90
2022-10-05T21:06:28.698Z,10.50
2022-10-05T21:09:01.760Z,11.00
2022-10-05T21:11:34.472Z,12.80
2022-10-05T21:14:08.443Z,11.00
2022-10-05T21:16:43.767Z,13.50
2022-10-05T21:19:17.352Z,11.10
2022-10-05T21:24:22.588Z,12.50
2022-10-05T21:26:57.939Z,13.60
2022-10-05T21:29:33.369Z,11.50
2022-10-05T21:32:08.872Z,12.10
2022-10-05T21:34:41.584Z,14.40
2022-10-05T21:37:15.887Z,11.20
2022-10-05T21:39:48.312Z,27.20
2022-10-05T21:42:20.715Z,18.50
2022-10-05T21:44:52.791Z,11.90
2022-10-05T21:47:25.010Z,14.50
2022-10-05T21:49:58.513Z,13.30
2022-10-05T21:52:31.483Z,16.40
2022-10-05T21:55:23.771Z,12.10
2022-10-05T21:57:56.653Z,12.80
2022-10-05T22:00:30.628Z,13.10
2022-10-05T22:03:02.911Z,10.80
2022-10-05T22:05:35.395Z,10.90
2022-10-05T22:08:08.376Z,12.60
2022-10-05T22:10:41.001Z,13.60
2022-10-05T22:13:13.376Z,12.50
2022-10-05T22:15:45.714Z,17.20
2022-10-05T22:18:19.737Z,12.30
2022-10-05T22:20:53.483Z,16.40
2022-10-05T22:23:28.549Z,15.20
2022-10-05T22:26:02.455Z,16.60
2022-10-05T22:28:35.693Z,14.50
2022-10-05T22:31:12.132Z,21.00
2022-10-05T22:33:44.541Z,17.70
2022-10-05T22:36:18.003Z,16.10
2022-10-05T22:38:50.352Z,11.70
2022-10-05T22:41:22.892Z,12.40
2022-10-05T22:43:57.111Z,15.00
2022-10-05T22:46:29.531Z,14.10
2022-10-05T22:49:02.513Z,14.10
2022-10-05T22:51:34.802Z,12.30
2022-10-05T22:54:10.002Z,14.10
2022-10-05T22:56:42.322Z,12.90
2022-10-05T22:59:14.523Z,17.50
2022-10-05T23:01:47.061Z,12.90
2022-10-05T23:04:19.368Z,16.60
2022-10-05T23:06:51.833Z,13.30
2022-10-05T23:09:24.954Z,18.30
2022-10-05T23:11:57.522Z,18.50
2022-10-05T23:14:31.112Z,15.90
2022-10-05T23:19:34.321Z,15.80
2022-10-05T23:22:07.434Z,12.70
2022-10-05T23:24:42.801Z,19.40
2022-10-05T23:27:15.101Z,14.50
2022-10-05T23:29:48.203Z,15.70
2022-10-05T23:32:20.534Z,18.20
2022-10-05T23:34:52.713Z,16.60
2022-10-05T23:37:27.052Z,15.60
2022-10-05T23:39:59.893Z,16.50
2022-10-05T23:42:32.013Z,13.40
2022-10-05T23:45:04.244Z,15.00
2022-10-05T23:47:37.382Z,22.10
2022-10-05T23:50:11.481Z,14.50
2022-10-05T23:52:43.874Z,12.70
2022-10-05T23:55:16.251Z,14.70
2022-10-05T23:57:48.332Z,17.10
